createdAt,value
2023-05-14T00:02:21.384Z,1.90
2023-05-14T00:04:53.855Z,1.80
2023-05-14T00:07:30.967Z,1.80
2023-05-14T00:10:03.723Z,2.00
2023-05-14T00:12:36.660Z,2.00
2023-05-14T00:15:10.854Z,1.80
2023-05-14T00:17:43.717Z,1.80
2023-05-14T00:20:16.662Z,2.00
2023-05-14T00:22:49.191Z,2.30
2023-05-14T00:25:21.488Z,1.80
2023-05-14T00:27:53.789Z,2.10
2023-05-14T00:30:26.573Z,2.00
2023-05-14T00:32:59.118Z,1.90
2023-05-14T00:35:31.408Z,2.00
2023-05-14T00:38:03.952Z,2.20
2023-05-14T00:40:36.352Z,1.80
2023-05-14T00:43:08.636Z,1.80
2023-05-14T00:45:41.360Z,2.00
2023-05-14T00:48:13.648Z,1.70
2023-05-14T00:50:46.600Z,2.10
2023-05-14T00:53:20.054Z,1.80
2023-05-14T00:55:53.010Z,2.20
2023-05-14T00:58:25.844Z,2.70
2023-05-14T01:00:58.262Z,2.00
2023-05-14T01:03:30.799Z,1.90
2023-05-14T01:06:09.713Z,2.20
2023-05-14T01:09:01.009Z,2.00
2023-05-14T01:11:38.220Z,2.00
2023-05-14T01:14:26.155Z,1.90
2023-05-14T01:17:01.456Z,2.30
2023-05-14T01:19:37.612Z,2.00
2023-05-14T01:22:09.802Z,2.60
2023-05-14T01:24:42.295Z,2.40
2023-05-14T01:27:18.854Z,2.60
2023-05-14T01:29:58.225Z,2.40
2023-05-14T01:32:30.697Z,2.10
2023-05-14T01:35:04.992Z,2.00
2023-05-14T01:37:59.121Z,2.40
2023-05-14T01:40:35.890Z,2.00
2023-05-14T01:46:33.546Z,2.80
2023-05-14T01:52:41.278Z,2.20
2023-05-14T01:58:41.386Z,2.20
2023-05-14T02:04:41.299Z,2.20
2023-05-14T02:07:19.828Z,1.90
2023-05-14T02:09:56.003Z,2.50
2023-05-14T02:12:30.786Z,2.70
2023-05-14T02:15:18.579Z,2.00
2023-05-14T02:17:57.827Z,2.30
2023-05-14T02:20:33.157Z,2.30
2023-05-14T02:23:06.819Z,2.40
2023-05-14T02:25:44.271Z,2.60
2023-05-14T02:28:20.894Z,2.40
2023-05-14T02:31:03.325Z,2.30
2023-05-14T02:33:39.348Z,3.00
2023-05-14T02:36:13.029Z,2.10
2023-05-14T02:38:47.099Z,2.00
2023-05-14T02:41:26.527Z,2.20
2023-05-14T02:44:02.851Z,3.10
2023-05-14T02:46:38.755Z,2.40
2023-05-14T02:49:21.299Z,2.30
2023-05-14T02:52:02.496Z,2.40
2023-05-14T02:54:36.293Z,2.60
2023-05-14T02:57:17.798Z,2.50
2023-05-14T02:59:57.864Z,2.70
2023-05-14T03:02:36.164Z,2.90
2023-05-14T03:05:14.980Z,2.30
2023-05-14T03:07:52.130Z,2.30
2023-05-14T03:10:30.804Z,2.50
2023-05-14T03:13:06.119Z,2.30
2023-05-14T03:15:42.632Z,2.50
2023-05-14T03:18:17.864Z,2.20
2023-05-14T03:21:06.252Z,2.60
2023-05-14T03:23:47.309Z,2.40
2023-05-14T03:26:25.948Z,2.90
2023-05-14T03:29:02.680Z,2.10
2023-05-14T03:31:37.710Z,2.20
2023-05-14T03:34:17.025Z,2.20
2023-05-14T03:36:56.633Z,1.80
2023-05-14T03:39:29.531Z,2.00
2023-05-14T03:42:11.773Z,2.20
2023-05-14T03:44:54.588Z,2.30
2023-05-14T03:47:35.156Z,1.70
2023-05-14T03:50:14.731Z,1.50
2023-05-14T03:52:48.949Z,1.90
2023-05-14T03:57:57.308Z,1.80
2023-05-14T04:00:38.142Z,2.20
2023-05-14T04:03:15.608Z,2.30
2023-05-14T04:05:49.723Z,1.50
2023-05-14T04:08:22.310Z,1.70
2023-05-14T04:11:08.594Z,2.10
2023-05-14T04:13:51.977Z,1.60
2023-05-14T04:16:24.279Z,2.00
2023-05-14T04:18:56.525Z,1.70
2023-05-14T04:21:29.772Z,2.00
2023-05-14T04:24:01.825Z,1.90
2023-05-14T04:26:34.161Z,1.40
2023-05-14T04:29:06.346Z,1.70
2023-05-14T04:31:39.819Z,2.10
2023-05-14T04:34:12.013Z,1.60
2023-05-14T04:36:44.092Z,1.40
2023-05-14T04:39:16.245Z,1.80
2023-05-14T04:41:48.322Z,1.70
2023-05-14T04:50:51.003Z,1.70
2023-05-14T04:56:49.246Z,1.90
2023-05-14T05:02:47.446Z,1.20
2023-05-14T05:08:47.539Z,1.30
2023-05-14T05:17:17.459Z,1.50
2023-05-14T05:19:49.483Z,1.60
2023-05-14T05:22:21.936Z,1.70
2023-05-14T05:28:20.689Z,1.70
2023-05-14T05:30:55.329Z,1.60
2023-05-14T05:33:29.951Z,1.40
2023-05-14T05:36:02.366Z,1.20
2023-05-14T05:38:34.747Z,1.10
2023-05-14T05:41:11.057Z,1.70
2023-05-14T05:43:44.140Z,1.10
2023-05-14T05:46:16.649Z,1.00
2023-05-14T05:48:48.912Z,1.80
2023-05-14T05:51:21.226Z,0.80
2023-05-14T05:53:53.579Z,1.00
2023-05-14T05:56:25.949Z,1.60
2023-05-14T05:58:58.183Z,1.00
2023-05-14T06:01:30.547Z,0.80
2023-05-14T06:04:04.734Z,1.30
2023-05-14T06:06:36.980Z,1.00
2023-05-14T06:09:09.714Z,0.90
2023-05-14T06:11:42.040Z,1.40
2023-05-14T06:14:14.216Z,0.90
2023-05-14T06:16:46.556Z,0.90
2023-05-14T06:19:18.897Z,0.90
2023-05-14T06:21:51.006Z,0.80
2023-05-14T06:24:24.100Z,0.60
2023-05-14T06:26:56.252Z,0.60
2023-05-14T06:29:28.476Z,0.70
2023-05-14T06:32:04.365Z,0.80
2023-05-14T06:34:36.429Z,0.90
2023-05-14T06:37:10.560Z,1.30
2023-05-14T06:39:48.254Z,0.60
2023-05-14T06:42:20.565Z,0.50
2023-05-14T06:44:53.060Z,0.70
2023-05-14T06:47:26.334Z,0.90
2023-05-14T06:49:58.708Z,0.50
2023-05-14T06:52:31.004Z,0.60
2023-05-14T06:55:03.409Z,0.80
2023-05-14T06:57:35.720Z,1.10
2023-05-14T07:00:11.810Z,0.70
2023-05-14T07:02:44.258Z,0.60
2023-05-14T07:05:16.697Z,0.80
2023-05-14T07:07:48.818Z,0.50
2023-05-14T07:10:21.130Z,0.80
2023-05-14T07:12:53.540Z,0.90
2023-05-14T07:15:25.619Z,0.50
2023-05-14T07:17:58.063Z,0.60
2023-05-14T07:20:30.289Z,0.50
2023-05-14T07:23:02.257Z,0.60
2023-05-14T07:25:34.472Z,0.70
2023-05-14T07:28:07.268Z,0.50
2023-05-14T07:30:39.421Z,0.30
2023-05-14T07:33:11.457Z,0.70
2023-05-14T07:35:43.649Z,0.50
2023-05-14T07:38:15.934Z,0.40
2023-05-14T07:40:48.175Z,0.50
2023-05-14T07:43:20.232Z,0.50
2023-05-14T07:45:53.932Z,0.50
2023-05-14T07:48:26.246Z,0.70
2023-05-14T07:50:58.636Z,0.60
2023-05-14T07:53:30.757Z,0.50
2023-05-14T07:56:02.884Z,0.70
2023-05-14T07:58:35.377Z,0.40
2023-05-14T08:01:09.786Z,0.40
2023-05-14T08:03:42.153Z,0.40
2023-05-14T08:06:14.555Z,0.80
2023-05-14T08:12:03.734Z,0.90
2023-05-14T08:14:49.631Z,0.80
2023-05-14T08:17:24.497Z,0.60
2023-05-14T08:19:57.300Z,0.50
2023-05-14T08:22:29.621Z,0.40
2023-05-14T08:25:03.867Z,0.90
2023-05-14T08:27:36.872Z,0.50
2023-05-14T08:30:10.866Z,0.50
2023-05-14T08:32:45.113Z,0.40
2023-05-14T08:35:17.855Z,0.60
2023-05-14T08:37:50.345Z,0.80
2023-05-14T08:40:22.792Z,0.50
2023-05-14T08:42:56.002Z,1.20
2023-05-14T08:45:34.439Z,0.40
2023-05-14T08:48:10.289Z,0.60
2023-05-14T08:50:43.990Z,1.30
2023-05-14T08:53:16.157Z,0.90
2023-05-14T08:55:49.063Z,1.50
2023-05-14T08:58:21.329Z,1.00
2023-05-14T09:00:53.890Z,0.90
2023-05-14T09:03:27.421Z,1.00
2023-05-14T09:06:01.553Z,0.70
2023-05-14T09:08:36.406Z,0.30
2023-05-14T09:11:09.482Z,0.70
2023-05-14T09:13:43.053Z,0.40
2023-05-14T09:16:15.916Z,0.50
2023-05-14T09:18:48.841Z,0.50
2023-05-14T09:21:21.546Z,0.60
2023-05-14T09:23:56.633Z,0.40
2023-05-14T09:26:29.711Z,0.50
2023-05-14T09:29:03.953Z,0.40
2023-05-14T09:31:37.576Z,0.60
2023-05-14T09:34:09.833Z,0.40
2023-05-14T09:36:43.250Z,0.50
2023-05-14T09:39:16.177Z,0.40
2023-05-14T09:41:48.527Z,0.60
2023-05-14T09:44:20.882Z,0.40
2023-05-14T09:46:53.861Z,0.60
2023-05-14T09:49:26.146Z,0.40
2023-05-14T09:51:59.365Z,0.30
2023-05-14T09:54:32.160Z,0.60
2023-05-14T09:57:04.459Z,0.40
2023-05-14T09:59:37.370Z,0.60
2023-05-14T10:02:11.044Z,0.70
2023-05-14T10:04:43.591Z,0.60
2023-05-14T10:07:16.085Z,0.40
2023-05-14T10:09:49.230Z,0.80
2023-05-14T10:12:24.561Z,0.50
2023-05-14T10:14:58.559Z,0.60
2023-05-14T10:17:34.947Z,0.60
2023-05-14T10:20:09.987Z,0.50
2023-05-14T10:22:44.476Z,0.50
2023-05-14T10:27:48.084Z,0.80
2023-05-14T10:30:24.633Z,1.40
2023-05-14T10:33:10.971Z,0.80
2023-05-14T10:35:59.346Z,0.70
2023-05-14T10:38:33.908Z,0.70
2023-05-14T10:41:08.312Z,0.70
2023-05-14T10:43:42.116Z,1.10
2023-05-14T10:46:16.878Z,0.80
2023-05-14T10:48:49.067Z,0.80
2023-05-14T10:51:23.101Z,0.80
2023-05-14T10:53:55.351Z,0.90
2023-05-14T10:56:28.606Z,0.90
2023-05-14T10:59:01.283Z,0.60
2023-05-14T11:01:36.135Z,0.60
2023-05-14T11:04:09.491Z,0.90
2023-05-14T11:06:45.315Z,0.50
2023-05-14T11:11:49.239Z,0.50
2023-05-14T11:14:22.971Z,0.60
2023-05-14T11:16:55.271Z,0.70
2023-05-14T11:19:28.032Z,0.40
2023-05-14T11:22:01.373Z,0.40
2023-05-14T11:24:33.968Z,0.60
2023-05-14T11:27:08.002Z,0.60
2023-05-14T11:29:46.914Z,0.70
2023-05-14T11:32:20.221Z,0.70
2023-05-14T11:34:52.784Z,0.80
2023-05-14T11:37:25.113Z,0.40
2023-05-14T11:40:01.342Z,0.40
2023-05-14T11:42:33.899Z,0.30
2023-05-14T11:45:07.117Z,0.60
2023-05-14T11:47:39.847Z,0.50
2023-05-14T11:53:56.394Z,0.60
2023-05-14T11:56:45.076Z,0.40
2023-05-14T11:59:18.088Z,0.40
2023-05-14T12:01:52.614Z,0.60
2023-05-14T12:04:25.774Z,0.40
2023-05-14T12:07:01.524Z,0.60
2023-05-14T12:09:40.657Z,0.60
2023-05-14T12:12:16.855Z,0.70
2023-05-14T12:14:49.905Z,0.50
2023-05-14T12:17:23.412Z,0.50
2023-05-14T12:19:57.146Z,1.40
2023-05-14T12:22:30.023Z,0.40
2023-05-14T12:25:04.117Z,0.50
2023-05-14T12:27:40.342Z,0.50
2023-05-14T12:30:21.651Z,0.40
2023-05-14T12:32:54.866Z,0.60
2023-05-14T12:35:27.811Z,0.60
2023-05-14T12:38:02.104Z,0.50
2023-05-14T12:40:34.718Z,0.50
2023-05-14T12:43:08.445Z,0.70
2023-05-14T12:45:40.859Z,0.70
2023-05-14T12:48:14.596Z,0.60
2023-05-14T12:50:48.674Z,0.90
2023-05-14T12:53:21.119Z,0.70
2023-05-14T12:55:53.549Z,1.50
2023-05-14T12:58:26.295Z,0.50
2023-05-14T13:00:58.715Z,0.60
2023-05-14T13:03:31.967Z,0.70
2023-05-14T13:06:04.996Z,0.70
2023-05-14T13:08:40.954Z,0.80
2023-05-14T13:11:16.923Z,0.50
2023-05-14T13:13:49.452Z,0.40
2023-05-14T13:16:24.838Z,0.50
2023-05-14T13:18:57.529Z,1.10
2023-05-14T13:21:29.844Z,1.50
2023-05-14T13:24:02.290Z,0.80
2023-05-14T13:26:34.825Z,0.80
2023-05-14T13:29:07.792Z,0.70
2023-05-14T13:31:40.132Z,0.70
2023-05-14T13:34:14.996Z,0.60
2023-05-14T13:36:50.027Z,0.70
2023-05-14T13:39:27.350Z,0.80
2023-05-14T13:41:59.835Z,1.00
2023-05-14T13:44:33.067Z,0.60
2023-05-14T13:47:06.398Z,0.90
2023-05-14T13:49:38.836Z,1.20
2023-05-14T13:52:12.837Z,1.10
2023-05-14T13:54:46.846Z,0.60
2023-05-14T13:57:19.679Z,1.00
2023-05-14T13:59:52.216Z,0.80
2023-05-14T14:02:24.659Z,0.60
2023-05-14T14:04:57.663Z,0.70
2023-05-14T14:07:31.568Z,1.60
2023-05-14T14:10:06.475Z,0.70
2023-05-14T14:12:39.752Z,0.50
2023-05-14T14:15:14.148Z,0.60
2023-05-14T14:17:48.315Z,0.90
2023-05-14T14:20:21.342Z,0.50
2023-05-14T14:22:54.373Z,0.50
2023-05-14T14:25:27.304Z,0.70
2023-05-14T14:28:00.205Z,0.70
2023-05-14T14:30:32.634Z,0.60
2023-05-14T14:33:05.507Z,0.40
2023-05-14T14:35:39.523Z,0.70
2023-05-14T14:38:11.820Z,0.50
2023-05-14T14:40:44.805Z,0.70
2023-05-14T14:43:17.969Z,0.50
2023-05-14T14:45:50.826Z,0.80
2023-05-14T14:48:28.128Z,0.80
2023-05-14T14:51:01.347Z,0.50
2023-05-14T14:53:34.221Z,0.50
2023-05-14T14:56:07.986Z,0.60
2023-05-14T14:58:40.990Z,0.60
2023-05-14T15:01:14.373Z,0.60
2023-05-14T15:03:50.722Z,0.70
2023-05-14T15:06:24.260Z,0.50
2023-05-14T15:08:58.232Z,0.50
2023-05-14T15:11:31.634Z,0.30
2023-05-14T15:14:05.423Z,0.60
2023-05-14T15:16:38.417Z,0.40
2023-05-14T15:19:13.572Z,0.40
2023-05-14T15:21:46.627Z,0.90
2023-05-14T15:24:19.311Z,0.60
2023-05-14T15:26:53.771Z,0.60
2023-05-14T15:29:26.928Z,0.40
2023-05-14T15:31:59.721Z,4.00
2023-05-14T15:34:32.681Z,8.20
2023-05-14T15:37:06.681Z,6.30
2023-05-14T15:39:39.262Z,2.90
2023-05-14T15:42:14.383Z,1.20
2023-05-14T15:44:47.720Z,2.80
2023-05-14T15:47:20.630Z,2.90
2023-05-14T15:49:53.516Z,2.20
2023-05-14T15:52:26.455Z,1.20
2023-05-14T15:54:59.984Z,0.40
2023-05-14T15:57:33.111Z,0.60
2023-05-14T16:00:11.350Z,0.50
2023-05-14T16:02:44.459Z,0.70
2023-05-14T16:05:22.677Z,0.70
2023-05-14T16:07:55.046Z,0.70
2023-05-14T16:10:28.498Z,0.80
2023-05-14T16:13:05.097Z,0.40
2023-05-14T16:15:37.625Z,0.60
2023-05-14T16:18:10.339Z,0.70
2023-05-14T16:20:43.435Z,0.50
2023-05-14T16:23:16.432Z,0.90
2023-05-14T16:25:48.783Z,1.50
2023-05-14T16:28:21.482Z,2.30
2023-05-14T16:30:56.754Z,1.30
2023-05-14T16:33:30.357Z,0.90
2023-05-14T16:36:03.408Z,1.40
2023-05-14T16:38:41.441Z,2.70
2023-05-14T16:41:22.158Z,1.30
2023-05-14T16:43:57.149Z,1.70
2023-05-14T16:46:30.789Z,7.30
2023-05-14T16:49:04.118Z,2.20
2023-05-14T16:51:42.549Z,1.20
2023-05-14T16:54:14.861Z,1.20
2023-05-14T16:56:48.431Z,2.30
2023-05-14T16:59:20.895Z,6.30
2023-05-14T17:01:53.561Z,8.40
2023-05-14T17:04:26.798Z,2.70
2023-05-14T17:07:01.668Z,10.30
2023-05-14T17:09:34.389Z,9.50
2023-05-14T17:12:08.410Z,9.70
2023-05-14T17:14:41.072Z,3.70
2023-05-14T17:17:13.359Z,11.10
2023-05-14T17:19:46.458Z,8.60
2023-05-14T17:22:19.073Z,4.10
2023-05-14T17:24:51.846Z,2.50
2023-05-14T17:27:25.237Z,2.00
2023-05-14T17:29:58.916Z,2.00
2023-05-14T17:32:31.784Z,1.00
2023-05-14T17:35:05.557Z,2.50
2023-05-14T17:37:38.810Z,1.70
2023-05-14T17:40:15.818Z,4.20
2023-05-14T17:42:48.283Z,2.70
2023-05-14T17:45:22.477Z,2.10
2023-05-14T17:47:55.607Z,1.50
2023-05-14T17:50:28.783Z,1.00
2023-05-14T17:53:03.555Z,1.40
2023-05-14T17:55:43.902Z,1.40
2023-05-14T17:58:18.549Z,0.70
2023-05-14T18:00:51.702Z,0.70
2023-05-14T18:03:24.829Z,0.30
2023-05-14T18:05:58.347Z,16.80
2023-05-14T18:08:36.097Z,10.50
2023-05-14T18:11:10.132Z,5.40
2023-05-14T18:13:43.506Z,1.40
2023-05-14T18:16:16.438Z,2.20
2023-05-14T18:18:49.773Z,2.50
2023-05-14T18:21:26.088Z,2.60
2023-05-14T18:23:59.357Z,1.20
2023-05-14T18:26:34.207Z,0.90
2023-05-14T18:29:07.165Z,0.90
2023-05-14T18:31:39.591Z,0.90
2023-05-14T18:34:17.106Z,2.20
2023-05-14T18:36:50.132Z,1.80
2023-05-14T18:39:22.229Z,0.50
2023-05-14T18:41:55.170Z,0.50
2023-05-14T18:44:28.704Z,0.70
2023-05-14T18:47:00.977Z,0.50
2023-05-14T18:49:33.124Z,0.40
2023-05-14T18:52:05.436Z,0.60
2023-05-14T18:54:53.432Z,1.40
2023-05-14T18:57:29.635Z,0.50
2023-05-14T19:00:06.469Z,0.40
2023-05-14T19:03:00.636Z,0.60
2023-05-14T19:12:19.832Z,0.80
2023-05-14T19:22:10.653Z,0.80
2023-05-14T19:28:33.044Z,0.60
2023-05-14T19:46:40.490Z,0.50
2023-05-14T19:49:27.650Z,1.50
2023-05-14T20:01:57.529Z,0.70
2023-05-14T20:04:44.827Z,0.50
2023-05-14T20:10:18.520Z,3.30
2023-05-14T20:13:05.911Z,6.10
2023-05-14T20:16:06.833Z,2.00
2023-05-14T20:22:00.970Z,0.70
2023-05-14T20:24:33.403Z,0.70
2023-05-14T20:31:28.283Z,0.50
2023-05-14T20:34:26.554Z,0.40
2023-05-14T20:37:25.816Z,0.80
2023-05-14T20:43:10.337Z,0.60
2023-05-14T20:46:08.667Z,0.60
2023-05-14T20:49:06.918Z,0.60
2023-05-14T20:51:36.551Z,0.60
2023-05-14T20:54:53.634Z,0.90
2023-05-14T20:57:44.893Z,0.50
2023-05-14T21:00:43.523Z,0.30
2023-05-14T21:10:41.608Z,0.40
2023-05-14T21:16:17.072Z,0.60
2023-05-14T21:21:49.479Z,1.20
2023-05-14T21:25:16.498Z,1.00
2023-05-14T21:38:10.775Z,1.10
2023-05-14T21:44:12.857Z,1.10
2023-05-14T21:50:29.374Z,1.00
2023-05-14T21:53:28.301Z,1.20
2023-05-14T21:56:26.429Z,0.80
2023-05-14T21:59:29.509Z,0.80
2023-05-14T22:05:56.018Z,0.90
2023-05-14T22:11:39.729Z,0.80
2023-05-14T22:14:23.517Z,0.80
2023-05-14T22:17:25.423Z,0.80
2023-05-14T22:33:50.639Z,0.60
2023-05-14T23:00:10.280Z,0.60
2023-05-14T23:06:13.544Z,0.70
2023-05-14T23:12:14.763Z,0.60
2023-05-14T23:15:15.266Z,0.80
2023-05-14T23:18:17.540Z,0.70
2023-05-14T23:31:05.740Z,0.80
2023-05-14T23:34:14.631Z,0.80
2023-05-14T23:37:18.404Z,0.90
2023-05-14T23:40:17.387Z,0.80
2023-05-14T23:46:45.819Z,0.60
2023-05-14T23:59:51.886Z,0.80
